Time;durP1;ratioP1;P1;durP2;ratioP2;P2;SDS_P1;SDS_P2;PMS_P1;PMS_P2;Temp;Humidity;BMP_temperature;BMP_pressure;BME280_temperature;BME280_humidity;BME280_pressure;Samples;Min_cycle;Max_cycle;Signal;HPM_P1;HPM_P2
2024/02/26 00:01:44;;;;;;;2.00;1.40;;;;;;;6.02;100.00;99824.66;5089853;28;20379;-47
2024/02/26 00:04:10;;;;;;;3.07;1.50;;;;;;;6.03;100.00;99826.28;5090146;28;20028;-40
2024/02/26 00:06:36;;;;;;;2.28;1.42;;;;;;;6.06;100.00;99841.13;5081037;28;20021;-40
2024/02/26 00:09:05;;;;;;;1.60;1.30;;;;;;;6.04;100.00;99843.22;5076547;28;20525;-40
2024/02/26 00:11:31;;;;;;;1.42;1.20;;;;;;;6.07;100.00;99843.59;5076405;28;20036;-40
2024/02/26 00:13:56;;;;;;;1.70;1.10;;;;;;;5.97;100.00;99829.88;5075824;28;20028;-39
2024/02/26 00:16:21;;;;;;;2.47;1.47;;;;;;;6.02;100.00;99839.94;5076373;28;20154;-39
2024/02/26 00:18:47;;;;;;;2.00;1.20;;;;;;;5.95;100.00;99831.97;5075804;28;20257;-39
2024/02/26 00:21:12;;;;;;;1.93;1.53;;;;;;;5.96;100.00;99841.66;5076073;28;20020;-39
2024/02/26 00:23:37;;;;;;;2.07;1.50;;;;;;;5.93;100.00;99837.56;5076036;28;20082;-39
2024/02/26 00:26:03;;;;;;;2.07;1.30;;;;;;;5.85;100.00;99831.63;5075668;28;20021;-40
2024/02/26 00:28:29;;;;;;;2.50;1.38;;;;;;;5.79;100.00;99819.13;5075900;28;20024;-40
2024/02/26 00:30:55;;;;;;;3.10;1.67;;;;;;;5.82;100.00;99824.88;5076082;28;20030;-40
2024/02/26 00:33:22;;;;;;;2.35;1.10;;;;;;;5.85;100.00;99831.63;5076032;28;20116;-40
2024/02/26 00:35:47;;;;;;;;;;;;;;;5.87;100.00;99841.13;5076397;28;20028;-40
2024/02/26 00:38:12;;;;;;;2.25;1.40;;;;;;;5.82;100.00;99837.47;5075681;28;19913;-40
2024/02/26 00:40:38;;;;;;;2.20;1.10;;;;;;;5.80;100.00;99840.34;5075878;28;20056;-40
2024/02/26 00:43:03;;;;;;;2.50;1.27;;;;;;;5.75;100.00;99836.72;5075452;28;20078;-40
2024/02/26 00:45:29;;;;;;;2.30;1.38;;;;;;;5.77;100.00;99837.31;5075567;28;20107;-40
2024/02/26 00:47:54;;;;;;;1.90;1.20;;;;;;;5.78;100.00;99842.44;5075871;28;20043;-40
2024/02/26 00:50:19;;;;;;;2.17;1.47;;;;;;;5.73;100.00;99844.19;5075545;28;20048;-40
2024/02/26 00:52:44;;;;;;;2.80;1.50;;;;;;;5.70;100.00;99834.69;5075489;28;20384;-40
2024/02/26 00:55:10;;;;;;;3.03;1.60;;;;;;;5.73;100.00;99842.31;5075522;28;20427;-40
2024/02/26 00:57:35;;;;;;;2.03;1.37;;;;;;;5.68;100.00;99837.63;5075916;28;20414;-40
2024/02/26 01:00:01;;;;;;;1.40;1.10;;;;;;;5.59;100.00;99830.91;5075556;28;20619;-40
2024/02/26 01:02:26;;;;;;;1.57;1.30;;;;;;;5.52;100.00;99819.44;5075211;28;20522;-40
2024/02/26 01:04:52;;;;;;;2.30;1.50;;;;;;;5.56;100.00;99820.63;5075199;28;20032;-40
2024/02/26 01:07:17;;;;;;;2.65;1.40;;;;;;;5.61;100.00;99827.97;5074834;28;20048;-40
2024/02/26 01:09:43;;;;;;;3.10;1.60;;;;;;;5.55;100.00;99827.03;5075385;28;20028;-38
2024/02/26 01:12:08;;;;;;;4.27;1.43;;;;;;;5.45;100.00;99807.94;5075088;28;20726;-39
2024/02/26 01:14:34;;;;;;;3.72;1.45;;;;;;;5.54;100.00;99822.69;5075534;28;20029;-39
2024/02/26 01:16:59;;;;;;;3.90;1.48;;;;;;;5.57;100.00;99819.59;5074657;28;20029;-39
2024/02/26 01:19:24;;;;;;;2.90;1.33;;;;;;;5.58;100.00;99831.94;5074018;28;20035;-39
2024/02/26 01:21:50;;;;;;;2.07;1.50;;;;;;;5.49;100.00;99824.41;5074565;28;20100;-39
2024/02/26 01:24:15;;;;;;;2.50;1.50;;;;;;;5.56;100.00;99834.03;5075119;28;20377;-39
2024/02/26 01:26:41;;;;;;;2.88;1.48;;;;;;;5.61;100.00;99838.72;5074496;28;20496;-40
2024/02/26 01:29:06;;;;;;;2.73;1.37;;;;;;;5.62;100.00;99835.00;5075298;28;20422;-40
2024/02/26 01:31:31;;;;;;;2.50;1.40;;;;;;;5.64;100.00;99846.31;5075433;28;20025;-40
2024/02/26 01:33:56;;;;;;;2.13;1.20;;;;;;;5.60;100.00;99840.56;5074630;28;20122;-40
2024/02/26 01:36:22;;;;;;;1.77;1.33;;;;;;;5.57;100.00;99841.03;5074351;28;20421;-40
2024/02/26 01:38:47;;;;;;;1.80;1.20;;;;;;;5.59;100.00;99846.19;5073612;28;20431;-40
2024/02/26 01:41:16;;;;;;;3.97;1.57;;;;;;;5.57;100.00;99850.94;5074783;28;20491;-40
2024/02/26 01:43:41;;;;;;;2.17;1.15;;;;;;;5.49;100.00;99841.31;5074969;28;20482;-40
2024/02/26 01:46:13;;;;;;;1.90;1.30;;;;;;;5.56;100.00;99857.34;5074326;28;20052;-40
2024/02/26 01:48:42;;;;;;;2.30;1.30;;;;;;;5.56;100.00;99851.97;5074337;28;20036;-40
2024/02/26 01:51:09;;;;;;;3.60;1.58;;;;;;;5.54;100.00;99854.06;5074244;28;20028;-40
2024/02/26 01:53:35;;;;;;;2.20;1.50;;;;;;;5.45;100.00;99861.56;5074230;28;20162;-40
2024/02/26 01:56:01;;;;;;;3.65;1.50;;;;;;;5.45;100.00;99860.75;5073607;28;20131;-40
2024/02/26 01:58:26;;;;;;;2.72;1.50;;;;;;;5.48;100.00;99871.06;5074172;28;20555;-40
2024/02/26 02:00:52;;;;;;;3.37;1.57;;;;;;;5.41;100.00;99871.91;5074132;28;20039;-40
2024/02/26 02:03:17;;;;;;;2.72;1.50;;;;;;;5.40;100.00;99872.16;5073816;28;20028;-40
2024/02/26 02:05:44;;;;;;;1.70;1.40;;;;;;;5.37;100.00;99875.28;5074062;28;20078;-40
2024/02/26 02:08:11;;;;;;;;;;;;;;;5.46;100.00;99878.47;5075281;28;20346;-39
2024/02/26 02:10:37;;;;;;;1.95;1.33;;;;;;;5.38;100.00;99869.69;5073898;28;19908;-39
2024/02/26 02:13:03;;;;;;;1.80;1.50;;;;;;;5.35;100.00;99872.81;5074078;28;20392;-39
2024/02/26 02:15:28;;;;;;;3.63;1.70;;;;;;;5.33;100.00;99872.22;5073859;28;20025;-40
2024/02/26 02:17:53;;;;;;;2.93;1.83;;;;;;;5.30;100.00;99869.16;5073599;28;20274;-40
2024/02/26 02:20:24;;;;;;;2.73;1.73;;;;;;;5.28;100.00;99864.00;5073812;28;20024;-40
2024/02/26 02:22:49;;;;;;;1.77;1.50;;;;;;;5.31;100.00;99873.47;5074057;28;20025;-39
2024/02/26 02:25:15;;;;;;;3.57;1.70;;;;;;;5.23;100.00;99858.50;5073434;28;20177;-40
2024/02/26 02:27:42;;;;;;;2.23;1.60;;;;;;;5.25;100.00;99871.66;5073709;28;20035;-39
2024/02/26 02:30:09;;;;;;;2.05;1.50;;;;;;;5.22;100.00;99862.22;5073439;28;20020;-39
2024/02/26 02:32:36;;;;;;;2.20;1.50;;;;;;;5.12;100.00;99857.34;5074165;28;20082;-40
2024/02/26 02:35:02;;;;;;;2.78;1.83;;;;;;;5.11;100.00;99865.59;5074046;28;20574;-40
2024/02/26 02:37:27;;;;;;;3.35;1.77;;;;;;;5.06;100.00;99860.88;5074154;28;20123;-40
2024/02/26 02:39:54;;;;;;;2.37;1.30;;;;;;;5.03;100.00;99858.66;5073575;28;20028;-40
2024/02/26 02:42:20;;;;;;;2.20;1.73;;;;;;;5.04;100.00;99867.53;5073274;28;20472;-40
2024/02/26 02:44:45;;;;;;;2.58;1.50;;;;;;;5.02;100.00;99861.53;5073793;28;20078;-40
2024/02/26 02:47:10;;;;;;;2.40;1.80;;;;;;;5.04;100.00;99875.56;5074080;28;20029;-40
2024/02/26 02:49:36;;;;;;;2.63;1.77;;;;;;;5.05;100.00;99878.00;5074047;28;20051;-39
2024/02/26 02:52:01;;;;;;;2.63;1.60;;;;;;;5.05;100.00;99878.00;5073999;28;20079;-39
2024/02/26 02:54:27;;;;;;;2.55;1.65;;;;;;;4.91;100.00;99881.84;5073430;28;20141;-39
2024/02/26 02:56:52;;;;;;;3.67;1.90;;;;;;;4.90;100.00;99880.19;5074028;28;20028;-40
2024/02/26 02:59:17;;;;;;;2.27;1.73;;;;;;;4.90;100.00;99888.22;5073414;28;20028;-40
2024/02/26 03:01:43;;;;;;;3.33;1.70;;;;;;;4.89;100.00;99889.28;5072987;28;20111;-40
2024/02/26 03:04:08;;;;;;;2.27;1.80;;;;;;;4.90;100.00;99885.56;5073145;28;20082;-39
2024/02/26 03:06:33;;;;;;;3.07;1.90;;;;;;;4.84;100.00;99876.53;5073298;28;20266;-40
2024/02/26 03:08:59;;;;;;;3.80;1.73;;;;;;;4.83;100.00;99877.56;5073932;28;20029;-40
2024/02/26 03:11:26;;;;;;;2.47;1.57;;;;;;;4.82;100.00;99883.13;5072959;28;20082;-40
2024/02/26 03:13:51;;;;;;;1.92;1.58;;;;;;;4.78;100.00;99879.22;5073159;28;20031;-40
2024/02/26 03:16:17;;;;;;;4.73;2.10;;;;;;;4.80;100.00;99880.66;5073447;28;20032;-39
2024/02/26 03:18:42;;;;;;;2.83;1.80;;;;;;;4.80;100.00;99886.03;5073761;28;20077;-39
2024/02/26 03:21:08;;;;;;;2.90;1.93;;;;;;;4.75;100.00;99885.88;5073467;28;20024;-39
2024/02/26 03:23:36;;;;;;;3.37;2.13;;;;;;;4.78;100.00;99893.47;5073475;28;20100;-39
2024/02/26 03:26:03;;;;;;;3.05;2.05;;;;;;;4.70;100.00;99874.97;5073084;28;20063;-39
2024/02/26 03:28:29;;;;;;;2.38;1.95;;;;;;;4.74;100.00;99886.09;5073098;28;20028;-39
2024/02/26 03:30:54;;;;;;;3.25;2.42;;;;;;;4.65;100.00;99888.19;5105452;28;20399;-39
2024/02/26 03:33:20;;;;;;;3.50;2.27;;;;;;;4.69;100.00;99878.69;5073391;28;20487;-39
2024/02/26 03:35:45;;;;;;;2.13;1.83;;;;;;;4.68;100.00;99884.25;5073024;28;20036;-39
2024/02/26 03:38:10;;;;;;;3.40;2.43;;;;;;;4.56;100.00;99874.22;5073355;28;20108;-39
2024/02/26 03:40:35;;;;;;;2.87;2.20;;;;;;;4.62;100.00;99886.75;5072792;28;20086;-39
2024/02/26 03:43:02;;;;;;;2.40;2.20;;;;;;;4.63;100.00;99890.25;5076772;28;20027;-39
2024/02/26 03:45:27;;;;;;;2.72;2.30;;;;;;;4.55;100.00;99888.66;5076630;28;20038;-39
2024/02/26 03:47:53;;;;;;;3.10;2.30;;;;;;;4.57;100.00;99891.13;5076087;28;20115;-39
2024/02/26 03:50:18;;;;;;;2.37;2.17;;;;;;;4.62;100.00;99885.94;5076894;28;20028;-39
2024/02/26 03:52:43;;;;;;;2.10;1.90;;;;;;;4.67;100.00;99886.09;5077084;28;20098;-39
2024/02/26 03:55:10;;;;;;;2.57;2.13;;;;;;;4.60;100.00;99880.00;5077228;28;20098;-39
2024/02/26 03:57:35;;;;;;;;;;;;;;;4.68;100.00;99887.75;5076607;28;20017;-39
2024/02/26 04:00:01;;;;;;;3.65;1.95;;;;;;;4.70;100.00;99885.69;5076167;28;19914;-39
2024/02/26 04:02:26;;;;;;;2.70;2.10;;;;;;;4.63;100.00;99882.22;5076092;28;20074;-39
2024/02/26 04:04:52;;;;;;;2.58;2.15;;;;;;;4.73;100.00;99900.50;5076365;28;20077;-40
2024/02/26 04:07:17;;;;;;;3.70;2.33;;;;;;;4.72;100.00;99904.22;5076055;28;20028;-40
2024/02/26 04:09:43;;;;;;;2.73;2.30;;;;;;;4.72;100.00;99901.53;5076292;28;20519;-40
2024/02/26 04:12:08;;;;;;;2.55;2.20;;;;;;;4.67;100.00;99888.78;5076188;28;20067;-40
2024/02/26 04:14:35;;;;;;;3.05;2.10;;;;;;;4.66;100.00;99908.56;5075848;28;20059;-40
2024/02/26 04:17:01;;;;;;;2.90;2.10;;;;;;;4.65;100.00;99901.59;5076865;28;20079;-40
2024/02/26 04:19:26;;;;;;;2.53;1.90;;;;;;;4.63;100.00;99896.41;5076136;28;20028;-38
2024/02/26 04:21:51;;;;;;;2.53;2.30;;;;;;;4.74;100.00;99908.31;5075974;28;20033;-39
2024/02/26 04:24:17;;;;;;;3.53;2.10;;;;;;;4.74;100.00;99896.81;5076018;28;20116;-39
2024/02/26 04:26:42;;;;;;;2.30;2.07;;;;;;;4.69;100.00;99918.06;5076508;28;20032;-39
2024/02/26 04:29:07;;;;;;;3.97;2.00;;;;;;;4.70;100.00;99906.28;5075914;28;20090;-39
2024/02/26 04:31:33;;;;;;;3.90;1.80;;;;;;;4.62;100.00;99891.28;5074727;28;20278;-39
2024/02/26 04:33:59;;;;;;;2.97;2.03;;;;;;;4.68;100.00;99913.72;5075653;28;20488;-39
2024/02/26 04:36:25;;;;;;;3.00;2.10;;;;;;;4.67;100.00;99917.44;5075348;28;20028;-40
2024/02/26 04:38:51;;;;;;;3.17;1.90;;;;;;;4.61;100.00;99901.19;5075590;28;20036;-40
2024/02/26 04:41:16;;;;;;;3.75;2.10;;;;;;;4.65;100.00;99915.78;5076309;28;20028;-40
2024/02/26 04:43:42;;;;;;;2.77;1.90;;;;;;;4.67;100.00;99920.94;5075380;28;20036;-40
2024/02/26 04:46:10;;;;;;;2.60;2.10;;;;;;;4.61;100.00;99927.16;5075523;28;20059;-40
2024/02/26 04:48:36;;;;;;;3.20;2.15;;;;;;;4.62;100.00;99928.78;5075888;28;20032;-40
2024/02/26 04:51:02;;;;;;;2.22;1.88;;;;;;;4.54;100.00;99902.25;5075210;28;20078;-40
2024/02/26 04:53:28;;;;;;;2.40;1.95;;;;;;;4.65;100.00;99923.00;5075354;28;20033;-40
2024/02/26 04:55:53;;;;;;;3.03;2.10;;;;;;;4.49;100.00;99924.34;5075072;28;20053;-40
2024/02/26 04:58:19;;;;;;;2.70;2.30;;;;;;;4.56;100.00;99921.63;5075424;28;20029;-39
2024/02/26 05:00:44;;;;;;;3.60;2.57;;;;;;;4.50;100.00;99931.31;5075040;28;20025;-40
2024/02/26 05:03:13;;;;;;;3.00;2.03;;;;;;;4.49;100.00;99916.31;5075663;28;20078;-40
2024/02/26 05:05:39;;;;;;;2.85;2.05;;;;;;;4.51;100.00;99918.75;5075879;28;20032;-39
2024/02/26 05:08:05;;;;;;;2.78;1.92;;;;;;;4.63;100.00;99938.44;5075440;28;20035;-39
2024/02/26 05:10:30;;;;;;;2.25;1.85;;;;;;;4.60;100.00;99938.91;5075467;28;20032;-40
2024/02/26 05:12:55;;;;;;;3.70;2.03;;;;;;;4.63;100.00;99935.78;5075141;28;20025;-40
2024/02/26 05:15:21;;;;;;;1.87;1.70;;;;;;;4.56;100.00;99927.78;5075540;28;20029;-40
2024/02/26 05:17:46;;;;;;;3.97;2.13;;;;;;;4.59;100.00;99937.25;5074948;28;20031;-40
2024/02/26 05:20:11;;;;;;;2.57;1.83;;;;;;;4.57;100.00;99942.00;5075015;28;20056;-40
2024/02/26 05:22:37;;;;;;;2.85;2.00;;;;;;;4.51;100.00;99916.06;5075205;28;20098;-40
2024/02/26 05:25:03;;;;;;;2.17;1.70;;;;;;;4.55;100.00;99930.69;5074926;28;20515;-40
2024/02/26 05:27:28;;;;;;;;;;;;;;;4.60;100.00;99928.19;5075173;28;20111;-40
2024/02/26 05:29:54;;;;;;;2.47;2.00;;;;;;;4.62;100.00;99931.47;5074399;28;19998;-39
2024/02/26 05:32:19;;;;;;;2.77;1.87;;;;;;;4.57;100.00;99939.31;5074403;28;20275;-39
2024/02/26 05:34:45;;;;;;;2.10;1.90;;;;;;;4.59;100.00;99942.63;5074847;28;20021;-39
2024/02/26 05:37:11;;;;;;;2.43;2.10;;;;;;;4.55;100.00;99941.41;5074601;28;20500;-39
2024/02/26 05:39:36;;;;;;;2.33;1.98;;;;;;;4.57;100.00;99950.03;5074859;28;20349;-39
2024/02/26 05:42:02;;;;;;;2.20;1.93;;;;;;;4.54;100.00;99951.28;5074809;28;20036;-39
2024/02/26 05:44:27;;;;;;;3.17;2.25;;;;;;;4.50;100.00;99959.97;5074744;28;20274;-39
2024/02/26 05:46:53;;;;;;;2.20;1.90;;;;;;;4.50;100.00;99949.25;5074133;28;20085;-39
2024/02/26 05:49:18;;;;;;;2.40;2.08;;;;;;;4.53;100.00;99954.16;5074865;28;20028;-39
2024/02/26 05:51:44;;;;;;;3.03;2.60;;;;;;;4.45;100.00;99962.44;5074587;28;20480;-40
2024/02/26 05:54:09;;;;;;;2.97;2.25;;;;;;;4.51;100.00;99973.13;5074190;28;20064;-40
2024/02/26 05:56:35;;;;;;;3.15;2.80;;;;;;;4.47;100.00;99971.91;5074223;28;20029;-40
2024/02/26 05:59:00;;;;;;;4.40;2.70;;;;;;;4.53;100.00;99971.03;5074142;28;20040;-40
2024/02/26 06:01:26;;;;;;;2.88;2.47;;;;;;;4.48;100.00;99967.34;5074069;28;20027;-39
2024/02/26 06:03:51;;;;;;;3.67;2.87;;;;;;;4.55;100.00;99984.22;5074434;28;20028;-40
2024/02/26 06:06:17;;;;;;;3.90;2.75;;;;;;;4.45;100.00;99981.19;5073965;28;20473;-39
2024/02/26 06:08:43;;;;;;;2.92;2.63;;;;;;;4.38;100.00;99971.31;5074023;28;20035;-40
2024/02/26 06:11:08;;;;;;;3.53;2.97;;;;;;;4.43;100.00;99977.88;5074173;28;20463;-40
2024/02/26 06:13:34;;;;;;;5.20;2.80;;;;;;;4.43;100.00;99989.41;5074242;28;20035;-40
2024/02/26 06:15:59;;;;;;;4.72;2.90;;;;;;;4.47;100.00;99987.16;5073666;28;20530;-39
2024/02/26 06:18:25;;;;;;;3.42;3.13;;;;;;;4.45;100.00;99986.53;5074366;28;20024;-39
2024/02/26 06:20:50;;;;;;;3.63;3.15;;;;;;;4.39;100.00;99986.34;5073776;28;20085;-39
2024/02/26 06:23:16;;;;;;;2.93;2.70;;;;;;;4.39;100.00;99978.31;5073467;28;20029;-40
2024/02/26 06:25:42;;;;;;;3.83;3.23;;;;;;;4.44;100.00;100001.78;5074207;28;20039;-40
2024/02/26 06:28:08;;;;;;;3.47;3.03;;;;;;;4.43;100.00;99997.44;5074217;28;20033;-40
2024/02/26 06:30:33;;;;;;;3.63;3.30;;;;;;;4.39;100.00;99991.72;5073904;28;20058;-40
2024/02/26 06:32:58;;;;;;;4.60;3.20;;;;;;;4.44;100.00;99998.25;5074192;28;20070;-40
2024/02/26 06:35:24;;;;;;;3.50;3.00;;;;;;;4.32;100.00;100001.59;5073616;28;20536;-40
2024/02/26 06:37:52;;;;;;;3.90;3.27;;;;;;;4.38;100.00;100016.00;5074135;28;20040;-38
2024/02/26 06:40:18;;;;;;;4.13;3.60;;;;;;;4.38;100.00;100005.28;5074102;28;20032;-40
2024/02/26 06:42:43;;;;;;;4.00;3.60;;;;;;;4.35;100.00;100021.78;5073442;28;20036;-39
2024/02/26 06:45:09;;;;;;;3.78;3.38;;;;;;;4.37;100.00;100025.88;5074068;28;20036;-40
2024/02/26 06:47:35;;;;;;;4.07;3.63;;;;;;;4.30;100.00;100011.72;5073483;28;20032;-40
2024/02/26 06:50:01;;;;;;;3.63;3.33;;;;;;;4.41;100.00;100036.19;5074048;28;20052;-40
2024/02/26 06:52:26;;;;;;;4.63;3.35;;;;;;;4.39;100.00;100041.72;5073773;28;20070;-40
2024/02/26 06:54:52;;;;;;;4.20;3.80;;;;;;;4.31;100.00;100037.44;5072799;28;20053;-40
2024/02/26 06:57:19;;;;;;;;;;;;;;;4.39;100.00;100042.56;5073524;28;20029;-40
2024/02/26 06:59:46;;;;;;;3.47;2.70;;;;;;;4.33;100.00;100043.38;5073436;28;19908;-40
2024/02/26 07:02:12;;;;;;;3.90;3.47;;;;;;;4.17;100.00;100025.13;5073814;28;20396;-40
2024/02/26 07:04:37;;;;;;;3.78;3.35;;;;;;;4.11;100.00;100032.13;5073510;28;20063;-40
2024/02/26 07:07:03;;;;;;;4.50;3.60;;;;;;;4.23;100.00;100048.34;5073090;28;20082;-39
2024/02/26 07:09:28;;;;;;;4.95;3.10;;;;;;;4.26;100.00;100041.78;5073872;28;20479;-40
2024/02/26 07:11:54;;;;;;;3.47;3.17;;;;;;;4.30;100.00;100056.41;5073290;28;20115;-40
2024/02/26 07:14:19;;;;;;;3.37;3.07;;;;;;;4.30;100.00;100057.22;5073280;28;20111;-40
2024/02/26 07:16:44;;;;;;;3.47;3.17;;;;;;;4.26;100.00;100060.50;5075252;28;20071;-40
2024/02/26 07:19:10;;;;;;;4.53;3.50;;;;;;;4.14;100.00;100052.28;5077527;28;20025;-40
2024/02/26 07:21:35;;;;;;;3.20;2.80;;;;;;;4.10;100.00;100051.91;5077261;28;20455;-39
2024/02/26 07:24:00;;;;;;;2.67;2.47;;;;;;;4.23;100.00;100063.59;5077383;28;20108;-39
2024/02/26 07:26:26;;;;;;;3.50;3.13;;;;;;;4.24;100.00;100071.41;5077054;28;20320;-40
2024/02/26 07:28:51;;;;;;;3.60;3.30;;;;;;;4.19;100.00;100079.22;5077362;28;20020;-39
2024/02/26 07:31:20;;;;;;;3.08;2.78;;;;;;;4.15;100.00;100075.34;5077293;28;20031;-39
2024/02/26 07:33:45;;;;;;;3.72;3.22;;;;;;;4.21;100.00;100079.88;5077567;28;20100;-40
2024/02/26 07:36:11;;;;;;;3.67;3.37;;;;;;;4.26;100.00;100082.75;5076779;28;20112;-39
2024/02/26 07:38:36;;;;;;;3.38;3.05;;;;;;;4.26;100.00;100079.25;5077116;28;20350;-39
2024/02/26 07:41:03;;;;;;;3.67;3.33;;;;;;;4.16;100.00;100082.34;5076526;28;20035;-39
2024/02/26 07:43:28;;;;;;;;;;;;;;;4.30;100.00;100083.16;5077525;28;20029;-39
2024/02/26 07:45:53;;;;;;;3.92;3.35;;;;;;;4.28;100.00;100088.69;5076648;28;19919;-40
2024/02/26 07:48:19;;;;;;;3.50;3.20;;;;;;;4.29;100.00;100095.69;5076688;28;20063;-40
2024/02/26 07:50:44;;;;;;;4.77;3.33;;;;;;;4.26;100.00;100096.13;5076671;28;20029;-39
2024/02/26 07:53:10;;;;;;;3.80;3.47;;;;;;;4.26;100.00;100097.97;5077404;28;20056;-39
2024/02/26 07:55:35;;;;;;;6.50;3.53;;;;;;;4.30;100.00;100113.41;5076914;28;20518;-39
2024/02/26 07:58:00;;;;;;;4.47;3.67;;;;;;;4.27;100.00;100118.34;5076784;28;20035;-39
2024/02/26 08:00:26;;;;;;;3.63;3.30;;;;;;;4.33;100.00;100115.66;5076497;28;20028;-40
2024/02/26 08:02:51;;;;;;;3.67;3.30;;;;;;;4.40;100.00;100123.69;5077220;28;20344;-39
2024/02/26 08:05:16;;;;;;;4.07;3.30;;;;;;;4.37;100.00;100124.94;5076029;28;20090;-39
2024/02/26 08:07:42;;;;;;;3.40;3.10;;;;;;;4.35;100.00;100123.50;5076401;28;20031;-44
2024/02/26 08:10:08;;;;;;;3.77;3.37;;;;;;;4.38;100.00;100123.88;5076374;28;20524;-40
2024/02/26 08:12:33;;;;;;;3.40;3.10;;;;;;;4.37;100.00;100130.28;5076768;28;20038;-40
2024/02/26 08:14:59;;;;;;;3.97;3.57;;;;;;;4.31;100.00;100114.25;5076067;28;20353;-40
2024/02/26 08:17:24;;;;;;;4.13;3.80;;;;;;;4.30;100.00;100137.50;5076060;28;20301;-40
2024/02/26 08:19:49;;;;;;;3.73;3.30;;;;;;;4.39;100.00;100138.94;5076180;28;20079;-40
2024/02/26 08:22:17;;;;;;;3.47;3.17;;;;;;;4.33;100.00;100137.06;5076075;28;20025;-39
2024/02/26 08:24:43;;;;;;;3.92;3.58;;;;;;;4.36;100.00;100146.56;5076362;28;20067;-39
2024/02/26 08:27:08;;;;;;;3.77;3.47;;;;;;;4.39;100.00;100156.84;5075236;28;20060;-39
2024/02/26 08:29:34;;;;;;;4.13;3.67;;;;;;;4.43;100.00;100157.25;5075930;28;20750;-39
2024/02/26 08:31:59;;;;;;;4.83;3.53;;;;;;;4.37;100.00;100156.22;5075960;28;20024;-39
2024/02/26 08:34:25;;;;;;;4.50;3.57;;;;;;;4.36;100.00;100157.25;5075483;28;20290;-39
2024/02/26 08:36:51;;;;;;;4.45;3.83;;;;;;;4.37;100.00;100156.22;5075455;28;20063;-39
2024/02/26 08:39:17;;;;;;;3.58;3.10;;;;;;;4.42;100.00;100161.78;5075799;28;20039;-39
2024/02/26 08:41:42;;;;;;;;;;;;;;;4.51;100.00;100175.78;5076093;28;20085;-39
2024/02/26 08:44:08;;;;;;;3.65;3.28;;;;;;;4.33;100.00;100163.03;5075365;28;19912;-39
2024/02/26 08:46:33;;;;;;;3.77;3.43;;;;;;;4.38;100.00;100169.41;5075325;28;20085;-39
2024/02/26 08:48:58;;;;;;;4.37;3.83;;;;;;;4.42;100.00;100177.03;5076103;28;20116;-40
2024/02/26 08:51:24;;;;;;;4.13;3.53;;;;;;;4.48;100.00;100189.56;5075831;28;20036;-40
2024/02/26 08:53:50;;;;;;;4.13;3.70;;;;;;;4.43;100.00;100178.66;5075795;28;20035;-40
2024/02/26 08:56:17;;;;;;;4.32;3.92;;;;;;;4.46;100.00;100188.97;5075878;28;20025;-39
2024/02/26 08:58:43;;;;;;;6.88;4.35;;;;;;;4.36;100.00;100181.34;5075598;28;20488;-39
2024/02/26 09:01:08;;;;;;;;;;;;;;;4.43;100.00;100200.09;5075723;28;20426;-39
2024/02/26 09:03:33;;;;;;;4.30;3.90;;;;;;;4.39;100.00;100188.97;5075357;28;19908;-39
2024/02/26 09:05:59;;;;;;;4.90;4.23;;;;;;;4.47;100.00;100198.66;5075315;28;20174;-39
2024/02/26 09:08:24;;;;;;;4.60;4.20;;;;;;;4.44;100.00;100194.53;5075515;28;20477;-39
2024/02/26 09:10:49;;;;;;;4.90;4.40;;;;;;;4.47;100.00;100196.78;5075101;28;20457;-39
2024/02/26 09:13:15;;;;;;;4.70;4.30;;;;;;;4.52;100.00;100209.56;5075140;28;20032;-39
2024/02/26 09:15:40;;;;;;;4.80;4.40;;;;;;;4.57;100.00;100207.09;5075703;28;20281;-39
2024/02/26 09:18:06;;;;;;;4.73;4.33;;;;;;;4.55;100.00;100215.34;5075846;28;20409;-39
2024/02/26 09:20:31;;;;;;;5.97;5.37;;;;;;;4.52;100.00;100214.91;5074868;28;20654;-39
2024/02/26 09:22:57;;;;;;;5.97;5.17;;;;;;;4.54;100.00;100224.41;5075362;28;20031;-39
2024/02/26 09:25:22;;;;;;;6.87;5.83;;;;;;;4.50;100.00;100228.53;5075335;28;20267;-39
2024/02/26 09:27:48;;;;;;;6.87;5.67;;;;;;;4.55;100.00;100228.72;5074484;28;20277;-39
2024/02/26 09:30:13;;;;;;;6.30;5.70;;;;;;;4.44;100.00;100229.34;5075253;28;20523;-39
2024/02/26 09:32:39;;;;;;;6.75;6.05;;;;;;;4.54;100.00;100237.78;5075179;28;20476;-39
2024/02/26 09:35:08;;;;;;;7.78;7.07;;;;;;;4.52;100.00;100239.84;5074840;28;20024;-39
2024/02/26 09:37:34;;;;;;;7.70;7.00;;;;;;;4.49;100.00;100231.38;5074235;28;20384;-39
2024/02/26 09:40:00;;;;;;;;;;;;;;;4.62;100.00;100258.97;5074420;28;20020;-39
2024/02/26 09:42:26;;;;;;;7.32;6.63;;;;;;;4.58;100.00;100243.53;5074186;28;20423;-39
2024/02/26 09:44:57;;;;;;;8.80;6.95;;;;;;;4.45;100.00;100231.00;5074682;28;20358;-39
2024/02/26 09:47:24;;;;;;;7.60;6.90;;;;;;;4.53;100.00;100246.00;5074696;28;20046;-39
2024/02/26 09:49:53;;;;;;;8.00;7.03;;;;;;;4.63;100.00;100259.81;5074638;28;20361;-39
2024/02/26 09:52:20;;;;;;;9.80;7.57;;;;;;;4.66;100.00;100267.44;5074541;28;20047;-39
2024/02/26 09:54:48;;;;;;;7.28;6.65;;;;;;;4.70;100.00;100270.53;5075034;28;20049;-39
2024/02/26 09:57:16;;;;;;;11.00;7.50;;;;;;;4.68;100.00;100270.72;5074229;28;20561;-39
2024/02/26 09:59:42;;;;;;;8.85;7.70;;;;;;;4.70;100.00;100275.91;5073876;28;20031;-39
2024/02/26 10:02:14;;;;;;;;;;;;;;;4.71;100.00;100278.34;5074524;28;20095;-39
2024/02/26 10:04:40;;;;;;;8.57;7.70;;;;;;;4.63;100.00;100289.25;5074345;28;20276;-39
2024/02/26 10:07:11;;;;;;;8.30;7.50;;;;;;;4.60;100.00;100276.31;5074072;28;20024;-39
2024/02/26 10:09:37;;;;;;;9.45;8.55;;;;;;;4.64;100.00;100298.97;5074482;28;20028;-39
2024/02/26 10:12:04;;;;;;;9.50;7.93;;;;;;;4.62;100.00;100292.97;5073903;28;20111;-39
2024/02/26 10:14:30;;;;;;;9.00;7.72;;;;;;;4.59;100.00;100302.25;5073816;28;20128;-39
2024/02/26 10:16:56;;;;;;;8.13;7.32;;;;;;;4.59;100.00;100307.63;5073875;28;20115;-39
2024/02/26 10:19:26;;;;;;;9.25;8.27;;;;;;;4.61;100.00;100326.97;5074123;28;20109;-39
2024/02/26 10:21:57;;;;;;;8.38;7.53;;;;;;;4.65;100.00;100316.69;5073986;28;20420;-38
2024/02/26 10:24:23;;;;;;;8.68;7.82;;;;;;;4.65;100.00;100317.50;5073734;28;20063;-39
2024/02/26 10:26:48;;;;;;;8.77;7.75;;;;;;;4.63;100.00;100329.44;5073739;28;20029;-39
2024/02/26 10:29:14;;;;;;;10.45;7.88;;;;;;;4.63;100.00;100318.72;5073721;28;20032;-39
2024/02/26 10:31:42;;;;;;;8.57;7.73;;;;;;;4.61;100.00;100331.50;5073335;28;20021;-39
2024/02/26 10:34:07;;;;;;;10.30;8.77;;;;;;;4.58;100.00;100326.56;5074130;28;20274;-39
2024/02/26 10:36:35;;;;;;;9.10;8.25;;;;;;;4.59;100.00;100346.97;5073609;28;20165;-39
2024/02/26 10:39:02;;;;;;;9.82;8.80;;;;;;;4.55;100.00;100346.53;5073366;28;20064;-39
2024/02/26 10:41:27;;;;;;;8.93;8.02;;;;;;;4.62;100.00;100343.88;5073850;28;20119;-39
2024/02/26 10:43:54;;;;;;;9.27;8.37;;;;;;;4.56;100.00;100344.69;5074166;28;20048;-39
2024/02/26 10:46:19;;;;;;;8.63;7.72;;;;;;;4.69;100.00;100360.78;5073122;28;20035;-39
2024/02/26 10:48:50;;;;;;;8.60;7.75;;;;;;;4.66;100.00;100353.16;5074321;28;20107;-39
2024/02/26 10:51:20;;;;;;;9.15;8.15;;;;;;;4.73;100.00;100380.75;5073205;28;20031;-39
2024/02/26 10:53:49;;;;;;;9.35;8.20;;;;;;;4.76;100.00;100382.22;5073718;28;20050;-39
2024/02/26 10:56:17;;;;;;;10.13;8.90;;;;;;;4.71;100.00;100379.31;5073921;28;20036;-39
2024/02/26 10:58:45;;;;;;;10.82;8.50;;;;;;;4.71;100.00;100380.13;5073130;28;20040;-39
2024/02/26 11:01:12;;;;;;;10.52;9.13;;;;;;;4.71;100.00;100390.84;5073343;28;20065;-39
2024/02/26 11:03:39;;;;;;;11.80;9.70;;;;;;;4.60;100.00;100380.75;5073414;28;20066;-40
2024/02/26 11:06:05;;;;;;;12.35;10.18;;;;;;;4.64;100.00;100387.34;5073010;28;20075;-40
2024/02/26 11:08:32;;;;;;;11.25;9.02;;;;;;;4.70;100.00;100391.06;5073839;28;20077;-39
2024/02/26 11:10:58;;;;;;;15.23;9.75;;;;;;;4.67;100.00;100391.47;5073259;28;20452;-39
2024/02/26 11:13:29;;;;;;;11.07;9.85;;;;;;;4.72;100.00;100392.50;5073016;28;20029;-39
2024/02/26 11:15:57;;;;;;;12.02;10.23;;;;;;;4.74;100.00;100395.81;5073501;28;20028;-39
2024/02/26 11:18:25;;;;;;;12.23;10.80;;;;;;;4.72;100.00;100389.81;5073233;28;20027;-40
2024/02/26 11:20:54;;;;;;;13.52;9.90;;;;;;;4.70;100.00;100393.75;5072877;28;20468;-40
2024/02/26 11:23:20;;;;;;;11.77;9.88;;;;;;;4.71;100.00;100398.88;5073701;28;20067;-40
2024/02/26 11:25:47;;;;;;;11.82;10.20;;;;;;;4.67;100.00;100405.69;5073214;28;20433;-40